WetterOnline ( https://www.wetteronline.de )

Wetter aktuell Hohenpeißenberg

Aktuelles Wetter: Hohenpeißenberg (986m)

6-stündlich | Neueste Meldungen
Ortszeit Temperatur Wetter
So, 12.07. 8:00 12.6° C bewölkt
So, 12.07. 2:00 12.9° C bedeckt
Sa, 11.07. 20:00 11.2° C bedeckt
Sa, 11.07. 14:00 12.1° C Regen
Sa, 11.07. 8:00 11.5° C leichter Regen
Sa, 11.07. 2:00 12.7° C leichter Regen
Fr, 10.07. 20:00 16.5° C leichter Regen
Fr, 10.07. 14:00 25.9° C wolkig
Ortszeit Temperatur Wetter
So, 12.07. 9:30 13.2° C wolkenlos
So, 12.07. 9:20 13.2° C wolkenlos
So, 12.07. 9:10 13.3° C wolkenlos
So, 12.07. 9:00 13.4° C fast wolkenlos
So, 12.07. 8:50 13.4° C fast wolkenlos
So, 12.07. 8:40 13.2° C fast wolkenlos
So, 12.07. 8:30 13.5° C wolkenlos
So, 12.07. 8:00 12.6° C bewölkt
So, 12.07. 7:30 12.7° C fast wolkenlos
So, 12.07. 7:00 11.3° C wolkig
So, 12.07. 6:30 11.2° C leicht bewölkt
So, 12.07. 6:00 10.8° C wolkenlos
Ortszeit Relative Feuchte Sichtweite
So, 12.07. 8:00 77% >70 km
So, 12.07. 2:00 74% 65 km
Sa, 11.07. 20:00 95% 35 km
Sa, 11.07. 14:00 100% 1.3 km
Sa, 11.07. 8:00 100% 100 m
Sa, 11.07. 2:00 100% 9 km
Fr, 10.07. 20:00 90% 40 km
Fr, 10.07. 14:00 49% >70 km
Ortszeit Relative Feuchte Sichtweite
So, 12.07. 9:30 80% 45 km
So, 12.07. 9:20 80% -
So, 12.07. 9:10 74% -
So, 12.07. 9:00 75% >70 km
So, 12.07. 8:50 75% -
So, 12.07. 8:40 76% -
So, 12.07. 8:30 77% >70 km
So, 12.07. 8:00 77% >70 km
So, 12.07. 7:30 80% 55 km
So, 12.07. 7:00 86% 55 km
So, 12.07. 6:30 88% 50 km
So, 12.07. 6:00 90% 45 km
Ortszeit Niederschlagsmenge Niederschlagsart
So, 12.07. 8:00 0.5 l/m2 in 12 Std. -
So, 12.07. 2:00 0.5 l/m2 in 6 Std. Regen
Sa, 11.07. 20:00 8 l/m2 in 12 Std. Regen
Sa, 11.07. 14:00 7 l/m2 in 6 Std. Regen
Sa, 11.07. 8:00 28 l/m2 in 12 Std. Regen
Sa, 11.07. 2:00 14 l/m2 in 6 Std. Regen
Fr, 10.07. 20:00 0.9 l/m2 in 12 Std. Regen
Fr, 10.07. 14:00 0.0 l/m2 in 6 Std. -
Ortszeit Niederschlagsmenge Niederschlagsart
So, 12.07. 9:30 0.0 l/m2 in 1 Std. -
So, 12.07. 9:20 keine Meldung -
So, 12.07. 9:10 keine Meldung -
So, 12.07. 9:00 0.0 l/m2 in 1 Std. -
So, 12.07. 8:50 keine Meldung -
So, 12.07. 8:40 keine Meldung -
So, 12.07. 8:30 0.0 l/m2 in 1 Std. -
So, 12.07. 8:00 0.0 l/m2 in 1 Std. -
So, 12.07. 7:30 0.0 l/m2 in 1 Std. -
So, 12.07. 7:00 0.0 l/m2 in 1 Std. -
So, 12.07. 6:30 0.0 l/m2 in 1 Std. -
So, 12.07. 6:00 0.0 l/m2 in 1 Std. -
Ortszeit Stärke Spitze Richtung
km/h Bft. km/h Grad Sektor
So, 12.07. 8:00 6 1 17 70° O
So, 12.07. 2:00 4 1 18 120° SO
Sa, 11.07. 20:00 11 2 18 170° S
Sa, 11.07. 14:00 11 2 29 360° N
Sa, 11.07. 8:00 14 3 22 190° S
Sa, 11.07. 2:00 7 2 36 30° NO
Fr, 10.07. 20:00 14 3 54 360° N
Fr, 10.07. 14:00 13 3 33 260° W
Ortszeit Stärke Spitze Richtung
km/h Bft. km/h Grad Sektor
So, 12.07. 9:30 9 2 19 50° NO
So, 12.07. 9:20 9 2 - 50° NO
So, 12.07. 9:10 9 2 - 60° NO
So, 12.07. 9:00 9 2 17 60° NO
So, 12.07. 8:50 9 2 - 60° NO
So, 12.07. 8:40 7 2 - 70° O
So, 12.07. 8:30 7 2 14 60° NO
So, 12.07. 8:00 6 1 13 70° O
So, 12.07. 7:30 6 1 11 80° O
So, 12.07. 7:00 9 2 15 130° SO
So, 12.07. 6:30 11 2 14 130° SO
So, 12.07. 6:00 13 3 15 130° SO
Ortszeit Untergrenze Bedeckung Gattung
total tief tief mittel hoch
So, 12.07. 8:00 1500 m 7/8 7/8 - - -
So, 12.07. 2:00 1500 m 8/8 8/8 - - -
Sa, 11.07. 20:00 1350 m 8/8 8/8 - - -
Sa, 11.07. 14:00 <30 m 7/8 0/8 - - -
Sa, 11.07. 8:00 30 m 7/8 7/8 - - -
Sa, 11.07. 2:00 30 m 7/8 7/8 - - -
Fr, 10.07. 20:00 960 m 7/8 7/8 - - -
Fr, 10.07. 14:00 3600 m 5/8 5/8 - - -
Ortszeit Bedeckungsgrad in Achtel und Wolkenuntergrenze
So, 12.07. 9:30 keine Wolken
So, 12.07. 9:20 keine Wolken
So, 12.07. 9:10 keine Wolken
So, 12.07. 9:00 1(1800m)
So, 12.07. 8:50 1(1800m)
So, 12.07. 8:40 1(1800m)
So, 12.07. 8:30 1(1800m)
So, 12.07. 8:00 7(1500m)
So, 12.07. 7:30 2(1500m)
So, 12.07. 7:00 5(1500m)
So, 12.07. 6:30 4(1500m)
So, 12.07. 6:00 keine Wolken
Ortszeit Stationsdruck (hPa) Tendenz (hPa in 3 Std.)
So, 12.07. 8:00 912 + 0,9
So, 12.07. 2:00 912 - 0,4
Sa, 11.07. 20:00 911 + 0,1
Sa, 11.07. 14:00 910 + 1,3
Sa, 11.07. 8:00 908 + 0,8
Sa, 11.07. 2:00 907 + 0,2
Fr, 10.07. 20:00 905 + 2,2
Fr, 10.07. 14:00 904 0,0
Ortszeit Stationsdruck (hPa) Tendenz (hPa in 3 Std.)
So, 12.07. 9:30 912 + 0,7
So, 12.07. 9:20 912 keine Meldung
So, 12.07. 9:10 912 keine Meldung
So, 12.07. 9:00 912 + 0,9
So, 12.07. 8:50 912 keine Meldung
So, 12.07. 8:40 912 keine Meldung
So, 12.07. 8:30 912 + 1,0
So, 12.07. 8:00 912 + 0,9
So, 12.07. 7:30 912 + 0,6
So, 12.07. 7:00 912 + 0,5
So, 12.07. 6:30 912 + 0,1
So, 12.07. 6:00 911 - 0,2
Ortszeit Schneehöhe (cm)
So, 12.07. 8:00 -
So, 12.07. 2:00 -
Sa, 11.07. 20:00 -
Sa, 11.07. 14:00 -
Sa, 11.07. 8:00 -
Sa, 11.07. 2:00 -
Fr, 10.07. 20:00 -
Fr, 10.07. 14:00 -
Ortszeit Schneehöhe (cm)
So, 12.07. 9:30 -
So, 12.07. 9:20 -
So, 12.07. 9:10 -
So, 12.07. 9:00 -
So, 12.07. 8:50 -
So, 12.07. 8:40 -
So, 12.07. 8:30 -
So, 12.07. 8:00 -
So, 12.07. 7:30 -
So, 12.07. 7:00 -
So, 12.07. 6:30 -
So, 12.07. 6:00 -
Link zu dieser Seite / Seite empfehlen

Das Wetter in ...